Time;durP1;ratioP1;P1;durP2;ratioP2;P2;SDS_P1;SDS_P2;PMS_P1;PMS_P2;Temp;Humidity;BMP_temperature;BMP_pressure;BME280_temperature;BME280_humidity;BME280_pressure;Samples;Min_cycle;Max_cycle;Signal;HPM_P1;HPM_P2
2022/02/24 05:00:37;;;;;;;9.50;8.20;;;6.30;99.90;;;;;;5846345;23;20486;-69
2022/02/24 05:03:04;;;;;;;10.50;7.57;;;6.30;99.90;;;;;;4959741;28;20436;-66
2022/02/24 05:05:30;;;;;;;10.10;7.83;;;6.30;99.90;;;;;;4959309;28;20510;-68
2022/02/24 05:07:59;;;;;;;9.10;8.20;;;6.30;99.90;;;;;;4959395;28;20463;-68
2022/02/24 05:10:26;;;;;;;8.63;7.10;;;6.30;99.90;;;;;;4959192;29;20455;-67
2022/02/24 05:12:55;;;;;;;8.80;7.53;;;6.30;99.90;;;;;;4959418;28;20451;-67
2022/02/24 05:15:22;;;;;;;7.67;6.80;;;6.30;99.90;;;;;;4959282;28;20475;-67
2022/02/24 05:17:50;;;;;;;8.97;7.70;;;6.30;99.90;;;;;;4959572;28;20456;-68
2022/02/24 05:20:17;;;;;;;7.53;6.77;;;6.30;99.90;;;;;;4959649;28;20459;-68
2022/02/24 05:22:44;;;;;;;10.50;8.13;;;6.20;99.90;;;;;;4959077;28;20969;-67
2022/02/24 05:25:14;;;;;;;10.40;7.47;;;6.20;99.90;;;;;;4959160;28;20990;-67
2022/02/24 05:27:42;;;;;;;10.37;7.20;;;6.20;99.90;;;;;;4959355;28;20460;-67
2022/02/24 05:30:10;;;;;;;8.73;7.87;;;6.10;99.90;;;;;;4960121;28;20534;-71
2022/02/24 05:32:37;;;;;;;7.97;7.17;;;6.00;99.90;;;;;;4960041;28;20926;-67
2022/02/24 05:35:06;;;;;;;11.13;8.20;;;6.10;99.90;;;;;;4959602;28;20840;-67
2022/02/24 05:37:34;;;;;;;8.40;7.60;;;6.00;99.90;;;;;;4959520;28;20456;-68
2022/02/24 05:40:01;;;;;;;10.80;7.90;;;6.10;99.90;;;;;;4959945;28;20452;-68
2022/02/24 05:42:28;;;;;;;8.40;6.90;;;6.00;99.90;;;;;;4959505;28;20472;-68
2022/02/24 05:44:55;;;;;;;9.00;7.57;;;6.00;99.90;;;;;;4960779;28;20834;-68
2022/02/24 05:47:22;;;;;;;9.37;6.87;;;6.00;99.90;;;;;;4959363;28;20460;-69
2022/02/24 05:49:49;;;;;;;7.23;6.43;;;6.00;99.90;;;;;;4959507;28;20456;-68
2022/02/24 05:52:17;;;;;;;8.77;7.10;;;6.00;99.90;;;;;;4960092;28;20475;-68
2022/02/24 05:54:46;;;;;;;8.30;6.53;;;6.00;99.90;;;;;;4959346;28;20452;-69
2022/02/24 05:57:13;;;;;;;9.43;5.77;;;6.00;99.90;;;;;;4958918;28;20452;-68
2022/02/24 05:59:39;;;;;;;6.50;5.90;;;6.00;99.90;;;;;;4959168;28;20463;-68
2022/02/24 06:02:07;;;;;;;11.77;6.67;;;6.00;99.90;;;;;;4962686;28;20494;-69
2022/02/24 06:04:33;;;;;;;7.10;6.40;;;5.90;99.90;;;;;;4963756;28;20484;-68
2022/02/24 06:07:00;;;;;;;11.50;6.97;;;5.90;99.90;;;;;;4959724;28;20459;-69
2022/02/24 06:09:28;;;;;;;11.00;6.53;;;6.00;99.90;;;;;;4959428;28;20447;-69
2022/02/24 06:11:55;;;;;;;8.30;6.30;;;6.00;99.90;;;;;;4959440;28;20852;-67
2022/02/24 06:14:22;;;;;;;12.60;6.10;;;6.00;99.90;;;;;;4958941;28;20459;-68
2022/02/24 06:16:49;;;;;;;6.17;5.60;;;6.00;99.90;;;;;;4958759;28;20994;-67
2022/02/24 06:19:16;;;;;;;7.10;6.33;;;6.00;99.90;;;;;;4958616;28;20451;-69
2022/02/24 06:21:42;;;;;;;11.57;6.47;;;6.10;99.90;;;;;;4961118;28;20487;-67
2022/02/24 06:24:09;;;;;;;7.80;5.90;;;6.10;99.90;;;;;;4960328;28;20483;-68
2022/02/24 06:26:37;;;;;;;7.20;6.50;;;6.10;99.90;;;;;;4959187;28;20456;-67
2022/02/24 06:29:04;;;;;;;11.90;6.10;;;6.10;99.90;;;;;;4958365;28;20463;-68
2022/02/24 06:31:34;;;;;;;7.03;6.40;;;6.10;99.90;;;;;;4958348;28;20483;-68
2022/02/24 06:34:01;;;;;;;6.83;6.23;;;6.10;99.90;;;;;;4958929;28;20483;-68
2022/02/24 06:36:28;;;;;;;9.50;6.40;;;6.20;99.90;;;;;;4959439;28;20483;-67
2022/02/24 06:38:56;;;;;;;6.27;5.63;;;6.20;99.90;;;;;;4959997;28;20452;-68
2022/02/24 06:41:22;;;;;;;10.83;7.13;;;6.20;99.90;;;;;;4958436;28;20476;-68
2022/02/24 06:43:51;;;;;;;8.87;7.40;;;6.20;99.90;;;;;;4958749;28;20455;-67
2022/02/24 06:46:18;;;;;;;7.90;6.40;;;6.30;99.90;;;;;;4960628;28;20492;-67
2022/02/24 06:48:45;;;;;;;7.27;6.07;;;6.40;99.90;;;;;;4960174;28;20946;-69
2022/02/24 06:51:12;;;;;;;7.20;6.43;;;6.40;99.90;;;;;;4960055;28;20486;-68
2022/02/24 06:53:38;;;;;;;7.40;6.17;;;6.50;99.90;;;;;;4960199;28;20471;-68
2022/02/24 06:56:06;;;;;;;6.37;5.77;;;6.50;99.90;;;;;;4959623;28;20451;-67
2022/02/24 06:58:33;;;;;;;8.73;6.30;;;6.50;99.90;;;;;;4959539;28;20466;-68
2022/02/24 07:01:02;;;;;;;12.30;6.57;;;6.40;99.90;;;;;;4959777;28;20490;-67
2022/02/24 07:03:29;;;;;;;7.90;6.37;;;6.40;99.90;;;;;;4960159;28;20462;-67
2022/02/24 07:05:55;;;;;;;8.63;7.70;;;6.50;99.90;;;;;;4960671;28;20468;-68
2022/02/24 07:08:23;;;;;;;7.00;6.17;;;6.50;99.90;;;;;;4960594;28;20463;-66
2022/02/24 07:10:49;;;;;;;8.23;7.40;;;6.50;99.90;;;;;;4960116;28;20993;-67
2022/02/24 07:13:16;;;;;;;8.53;7.57;;;6.60;99.90;;;;;;4960267;28;20483;-68
2022/02/24 07:15:43;;;;;;;13.27;7.53;;;6.60;99.90;;;;;;4960126;28;20454;-67
2022/02/24 07:18:11;;;;;;;9.07;6.30;;;6.60;99.90;;;;;;4958199;28;20466;-68
2022/02/24 07:20:38;;;;;;;7.33;6.63;;;6.70;99.90;;;;;;4957949;28;20534;-67
2022/02/24 07:23:04;;;;;;;9.30;8.30;;;6.70;99.90;;;;;;4958657;28;20467;-68
2022/02/24 07:25:31;;;;;;;8.93;6.63;;;6.70;99.90;;;;;;4958677;28;20480;-68
2022/02/24 07:27:58;;;;;;;8.37;7.47;;;6.90;99.90;;;;;;4958867;28;20459;-66
2022/02/24 07:30:24;;;;;;;8.67;7.73;;;6.90;99.90;;;;;;4957824;28;20830;-67
2022/02/24 07:32:51;;;;;;;12.43;7.10;;;7.00;99.90;;;;;;4957216;28;20463;-67
2022/02/24 07:35:20;;;;;;;14.03;6.97;;;7.10;99.90;;;;;;4957664;28;20451;-70
2022/02/24 07:37:46;;;;;;;12.80;7.57;;;7.20;99.90;;;;;;4957800;28;20499;-67
2022/02/24 07:40:13;;;;;;;8.03;7.23;;;7.30;99.90;;;;;;4957561;28;20459;-67
2022/02/24 07:42:40;;;;;;;9.03;6.90;;;7.50;99.90;;;;;;4957540;28;20482;-67
2022/02/24 07:45:08;;;;;;;8.93;6.40;;;7.70;99.90;;;;;;4957272;28;20476;-67
2022/02/24 07:47:35;;;;;;;9.80;7.50;;;8.00;99.90;;;;;;4957381;28;20451;-67
2022/02/24 07:50:02;;;;;;;7.23;6.50;;;8.50;99.90;;;;;;4957723;28;20818;-68
2022/02/24 07:52:30;;;;;;;7.63;6.67;;;8.80;99.90;;;;;;4957695;28;20476;-68
2022/02/24 07:54:56;;;;;;;7.60;6.73;;;8.90;99.90;;;;;;4959999;28;20970;-67
2022/02/24 07:57:23;;;;;;;7.60;6.90;;;8.90;99.90;;;;;;4957501;28;20459;-67
2022/02/24 07:59:50;;;;;;;8.20;7.10;;;9.00;99.90;;;;;;4956701;28;20500;-66
2022/02/24 08:02:17;;;;;;;8.40;7.53;;;9.40;99.90;;;;;;4956452;28;20480;-67
2022/02/24 08:04:45;;;;;;;8.13;7.00;;;9.50;99.90;;;;;;4956858;28;20486;-67
2022/02/24 08:07:11;;;;;;;7.70;7.00;;;9.70;99.90;;;;;;4956514;28;20958;-68
2022/02/24 08:09:39;;;;;;;10.50;6.90;;;9.60;99.90;;;;;;4956971;28;20460;-67
2022/02/24 08:14:52;;;;;;;9.03;6.63;;;10.60;99.90;;;;;;4957013;29;20412;-67
2022/02/24 08:17:20;;;;;;;8.50;6.50;;;11.00;99.90;;;;;;4956870;28;20506;-68
2022/02/24 08:19:48;;;;;;;7.23;6.40;;;11.80;99.90;;;;;;4956850;28;20455;-68
2022/02/24 08:22:16;;;;;;;8.33;6.00;;;12.40;99.90;;;;;;4956771;28;20483;-67
2022/02/24 08:24:44;;;;;;;7.23;6.53;;;12.70;99.90;;;;;;4956444;28;20495;-67
2022/02/24 08:27:10;;;;;;;8.23;6.20;;;13.00;99.90;;;;;;4956312;28;20456;-68
2022/02/24 08:29:37;;;;;;;9.20;6.47;;;13.50;99.90;;;;;;4955566;28;20823;-67
2022/02/24 08:32:05;;;;;;;10.83;6.53;;;13.90;99.90;;;;;;4955621;28;20482;-66
2022/02/24 08:34:31;;;;;;;10.63;6.97;;;13.90;99.90;;;;;;4955711;28;20786;-67
2022/02/24 08:36:58;;;;;;;10.97;6.13;;;14.20;99.90;;;;;;4955796;28;20568;-67
2022/02/24 08:39:25;;;;;;;9.63;6.27;;;14.80;99.90;;;;;;4955618;28;20448;-67
2022/02/24 08:41:54;;;;;;;6.50;5.70;;;15.20;99.90;;;;;;4955497;28;20476;-68
2022/02/24 08:44:20;;;;;;;6.23;5.53;;;15.20;99.90;;;;;;4955443;28;20966;-67
2022/02/24 08:46:47;;;;;;;7.20;5.60;;;15.40;99.90;;;;;;4955809;28;20487;-66
2022/02/24 08:49:14;;;;;;;9.87;6.73;;;15.40;99.90;;;;;;4955719;28;20440;-66
2022/02/24 08:51:42;;;;;;;6.50;5.90;;;15.70;99.90;;;;;;4955934;28;20486;-67
2022/02/24 08:54:08;;;;;;;6.70;6.10;;;15.10;99.60;;;;;;4955523;28;20907;-67
2022/02/24 08:56:35;;;;;;;6.80;6.20;;;14.40;99.90;;;;;;4955646;28;20459;-66
2022/02/24 08:59:03;;;;;;;6.47;5.97;;;13.90;99.90;;;;;;4955574;28;20455;-66
2022/02/24 09:01:30;;;;;;;10.37;6.27;;;13.80;99.90;;;;;;4955541;28;20488;-68
2022/02/24 09:03:57;;;;;;;5.83;5.20;;;14.30;99.90;;;;;;4955730;28;20530;-66
2022/02/24 09:06:23;;;;;;;5.47;4.90;;;15.10;99.90;;;;;;4956529;28;20483;-67
2022/02/24 09:08:50;;;;;;;9.87;5.67;;;16.00;98.90;;;;;;4955729;28;20464;-67
2022/02/24 09:11:17;;;;;;;4.80;4.40;;;16.60;97.20;;;;;;4955511;28;20476;-66
2022/02/24 09:13:44;;;;;;;6.20;5.70;;;17.30;96.20;;;;;;4955532;28;20487;-66
2022/02/24 09:16:12;;;;;;;6.20;5.27;;;17.40;94.80;;;;;;4955458;28;20440;-67
2022/02/24 09:18:38;;;;;;;5.90;5.30;;;17.80;93.50;;;;;;4955463;28;20455;-68
2022/02/24 09:21:06;;;;;;;5.87;5.40;;;18.30;92.30;;;;;;4955428;28;20476;-67
2022/02/24 09:23:34;;;;;;;6.80;4.70;;;18.60;91.30;;;;;;4958056;28;20459;-67
2022/02/24 09:26:01;;;;;;;6.63;5.30;;;18.60;90.30;;;;;;4959632;28;20935;-67
2022/02/24 09:28:28;;;;;;;5.47;4.87;;;18.40;90.00;;;;;;4960680;28;20440;-67
2022/02/24 09:30:55;;;;;;;5.10;4.70;;;17.60;90.80;;;;;;4958900;28;20479;-67
2022/02/24 09:33:23;;;;;;;6.47;5.17;;;16.70;92.10;;;;;;4958874;28;20507;-67
2022/02/24 09:35:49;;;;;;;5.00;4.50;;;15.70;93.30;;;;;;4958333;28;20969;-68
2022/02/24 09:38:17;;;;;;;9.93;5.53;;;15.00;94.60;;;;;;4958658;28;20459;-68
2022/02/24 09:40:45;;;;;;;7.63;6.10;;;14.30;95.70;;;;;;4958396;28;20514;-68
2022/02/24 09:43:12;;;;;;;7.43;4.90;;;13.80;97.70;;;;;;4958507;28;20555;-68
2022/02/24 09:45:41;;;;;;;5.83;5.23;;;13.40;98.70;;;;;;4958398;28;20482;-68
2022/02/24 09:48:12;;;;;;;9.87;5.60;;;13.00;99.90;;;;;;4958300;29;20494;-67
2022/02/24 09:50:40;;;;;;;12.10;5.60;;;12.70;99.90;;;;;;4958417;28;20566;-68
2022/02/24 09:53:07;;;;;;;13.20;6.37;;;12.90;99.90;;;;;;4958059;28;20529;-68
2022/02/24 09:55:34;;;;;;;13.83;5.13;;;13.00;99.90;;;;;;4958122;28;20962;-67
2022/02/24 09:58:01;;;;;;;13.00;5.10;;;13.10;99.90;;;;;;4958336;28;20463;-67
2022/02/24 10:00:28;;;;;;;5.73;4.60;;;13.10;99.90;;;;;;4957943;28;20455;-67
2022/02/24 10:02:54;;;;;;;5.83;4.37;;;13.10;99.90;;;;;;4958480;28;20444;-67
2022/02/24 10:05:22;;;;;;;8.40;4.40;;;13.40;99.90;;;;;;4958225;28;20479;-66
2022/02/24 10:07:52;;;;;;;7.63;5.47;;;13.70;99.90;;;;;;4957811;28;20459;-66
2022/02/24 10:10:28;;;;;;;5.70;5.30;;;14.40;99.90;;;;;;4958132;28;20440;-67
2022/02/24 10:13:04;;;;;;;6.20;5.60;;;14.90;99.90;;;;;;4958090;28;20436;-66
2022/02/24 10:15:31;;;;;;;6.07;5.00;;;15.30;99.10;;;;;;4958830;28;20443;-67
2022/02/24 10:18:12;;;;;;;7.70;4.90;;;15.60;98.50;;;;;;4958717;28;20534;-67
2022/02/24 10:20:42;;;;;;;6.30;5.57;;;15.50;98.50;;;;;;4958610;28;20487;-66
2022/02/24 10:23:10;;;;;;;7.87;4.90;;;15.40;98.40;;;;;;4958474;28;20463;-67
2022/02/24 10:25:45;;;;;;;5.47;3.87;;;15.10;98.30;;;;;;4958382;28;20472;-66
2022/02/24 10:28:34;;;;;;;8.93;5.17;;;15.30;98.80;;;;;;4958502;28;20459;-68
2022/02/24 10:31:06;;;;;;;6.60;4.10;;;16.00;99.00;;;;;;4958285;28;20485;-68
2022/02/24 10:33:33;;;;;;;4.53;2.17;;;16.60;96.70;;;;;;4958131;28;20448;-67
2022/02/24 10:36:10;;;;;;;2.87;2.10;;;16.90;93.80;;;;;;4959145;28;20455;-68
2022/02/24 10:38:38;;;;;;;1.80;1.70;;;17.00;92.00;;;;;;4958164;28;20436;-67
2022/02/24 10:41:06;;;;;;;4.70;2.17;;;17.20;91.30;;;;;;4957836;28;20479;-68
2022/02/24 10:43:36;;;;;;;2.83;1.97;;;17.60;91.20;;;;;;4957747;28;20483;-67
2022/02/24 10:46:06;;;;;;;2.33;2.07;;;18.30;90.40;;;;;;4957714;28;20487;-67
2022/02/24 10:48:46;;;;;;;3.73;2.03;;;18.30;86.60;;;;;;4957578;28;20539;-67
2022/02/24 10:51:13;;;;;;;2.90;1.80;;;19.20;85.40;;;;;;4957515;28;20506;-67
2022/02/24 10:53:42;;;;;;;2.43;1.90;;;19.30;83.80;;;;;;4957465;28;20459;-67
2022/02/24 10:56:09;;;;;;;2.00;1.60;;;18.90;81.30;;;;;;4957321;28;20456;-68
2022/02/24 10:58:39;;;;;;;1.80;1.40;;;19.10;82.20;;;;;;4958357;28;20456;-67
2022/02/24 11:01:15;;;;;;;1.93;1.60;;;19.00;81.40;;;;;;4957373;28;20496;-67
2022/02/24 11:03:44;;;;;;;1.90;1.20;;;18.80;80.00;;;;;;4957407;28;20452;-67
2022/02/24 11:06:12;;;;;;;2.03;1.70;;;18.80;88.10;;;;;;4957059;28;20487;-67
2022/02/24 11:08:40;;;;;;;2.73;1.93;;;19.20;81.80;;;;;;4956636;28;20921;-67
2022/02/24 11:11:07;;;;;;;2.23;1.80;;;19.10;83.10;;;;;;4956824;28;20487;-68
2022/02/24 11:13:35;;;;;;;1.83;1.63;;;18.90;80.30;;;;;;4956641;28;20970;-67
2022/02/24 11:16:03;;;;;;;4.30;1.80;;;18.60;80.50;;;;;;4956667;28;20448;-67
2022/02/24 11:18:30;;;;;;;1.60;1.50;;;18.20;82.20;;;;;;4956281;28;20464;-67
2022/02/24 11:20:57;;;;;;;2.17;1.87;;;18.00;83.70;;;;;;4956551;28;20472;-67
2022/02/24 11:23:25;;;;;;;5.07;2.07;;;17.70;82.60;;;;;;4956739;28;20456;-68
2022/02/24 11:26:27;;;;;;;1.57;1.47;;;17.30;83.40;;;;;;4956763;28;20503;-67
2022/02/24 11:29:02;;;;;;;4.23;2.40;;;16.80;85.90;;;;;;4956346;28;20440;-67
2022/02/24 11:31:36;;;;;;;2.50;1.70;;;17.10;87.40;;;;;;4956563;28;20482;-67
2022/02/24 11:34:03;;;;;;;2.60;1.73;;;17.00;85.30;;;;;;4956483;28;20435;-66
2022/02/24 11:36:39;;;;;;;2.67;1.90;;;17.00;85.90;;;;;;4956618;28;20452;-67
2022/02/24 11:39:11;;;;;;;1.50;1.40;;;16.50;85.90;;;;;;4956729;28;20490;-66
2022/02/24 11:41:57;;;;;;;2.63;1.60;;;16.20;86.10;;;;;;4956311;28;20480;-67
2022/02/24 11:44:42;;;;;;;2.00;1.50;;;16.20;85.80;;;;;;4956480;28;20435;-67
2022/02/24 11:47:10;;;;;;;2.73;1.83;;;15.60;85.50;;;;;;4955425;28;20534;-67
2022/02/24 11:50:17;;;;;;;2.50;1.47;;;15.70;87.70;;;;;;4956251;28;20507;-67
2022/02/24 11:52:51;;;;;;;4.43;1.87;;;15.80;87.20;;;;;;4956111;28;20451;-67
2022/02/24 11:55:50;;;;;;;1.77;1.67;;;15.90;88.40;;;;;;4956391;28;20436;-67
2022/02/24 11:58:36;;;;;;;3.10;1.70;;;15.90;86.00;;;;;;4955991;28;20455;-67
2022/02/24 12:01:18;;;;;;;1.80;1.40;;;15.60;86.80;;;;;;4957151;28;21006;-68
2022/02/24 12:03:58;;;;;;;2.30;1.57;;;15.60;87.00;;;;;;4955414;28;20495;-68
2022/02/24 12:06:41;;;;;;;1.83;1.57;;;15.40;86.70;;;;;;4955298;28;20469;-68
2022/02/24 12:09:09;;;;;;;3.10;1.97;;;15.50;89.30;;;;;;4955349;28;20448;-67
2022/02/24 12:11:39;;;;;;;2.23;1.50;;;15.60;85.70;;;;;;4955175;28;20574;-68
2022/02/24 12:14:45;;;;;;;2.60;1.53;;;15.70;86.20;;;;;;4955254;28;20466;-66
2022/02/24 12:17:14;;;;;;;2.50;1.70;;;15.60;85.90;;;;;;4955141;28;20436;-67
2022/02/24 12:19:44;;;;;;;1.90;1.40;;;15.60;86.40;;;;;;4955019;28;20460;-67
2022/02/24 12:22:15;;;;;;;2.90;2.10;;;15.70;88.10;;;;;;4955460;28;20476;-68
2022/02/24 12:24:44;;;;;;;1.60;1.50;;;15.80;86.60;;;;;;4955303;28;20495;-67
2022/02/24 12:27:39;;;;;;;2.83;1.30;;;15.70;84.90;;;;;;4955478;28;20479;-67
2022/02/24 12:30:22;;;;;;;1.87;1.60;;;15.50;84.30;;;;;;4957869;28;20436;-68
2022/02/24 12:32:51;;;;;;;4.53;1.60;;;15.20;88.40;;;;;;4956297;28;20765;-67
2022/02/24 12:35:21;;;;;;;1.77;1.67;;;15.40;88.60;;;;;;4955107;28;20502;-68
2022/02/24 12:37:49;;;;;;;2.10;1.67;;;15.40;86.40;;;;;;4955913;28;20448;-67
2022/02/24 12:40:18;;;;;;;2.57;1.50;;;15.50;87.80;;;;;;4954754;28;20543;-68
2022/02/24 12:42:45;;;;;;;2.20;1.47;;;15.50;83.80;;;;;;4954494;28;20915;-68
2022/02/24 12:45:12;;;;;;;1.93;1.73;;;15.40;85.30;;;;;;4954746;28;20457;-67
2022/02/24 12:47:40;;;;;;;2.43;1.60;;;15.40;85.30;;;;;;4956087;28;20562;-68
2022/02/24 12:50:07;;;;;;;3.60;1.43;;;15.30;86.50;;;;;;4956209;28;20490;-68
2022/02/24 12:52:34;;;;;;;2.57;1.57;;;15.40;85.10;;;;;;4956022;28;20480;-68
2022/02/24 12:55:01;;;;;;;3.47;1.40;;;15.30;83.40;;;;;;4956063;28;20470;-68
2022/02/24 12:57:28;;;;;;;2.00;1.80;;;15.20;82.20;;;;;;4957115;28;20479;-67
2022/02/24 12:59:56;;;;;;;2.57;1.70;;;15.30;83.80;;;;;;4959238;28;20462;-68
2022/02/24 13:02:24;;;;;;;2.43;1.50;;;15.30;83.10;;;;;;4919186;28;1194160;-68
2022/02/24 13:04:52;;;;;;;1.13;1.10;;;15.20;83.60;;;;;;4960387;28;20203;-68
2022/02/24 13:10:01;;;;;;;3.50;1.40;;;15.10;85.70;;;;;;4959856;28;20432;-67
2022/02/24 13:12:27;;;;;;;2.10;1.50;;;15.10;86.10;;;;;;4960652;28;20487;-67
2022/02/24 13:14:55;;;;;;;1.40;1.30;;;15.00;85.60;;;;;;4960345;28;20448;-67
2022/02/24 13:17:23;;;;;;;4.93;1.77;;;14.70;85.00;;;;;;4960535;28;20448;-68
2022/02/24 13:19:54;;;;;;;2.03;1.50;;;14.60;84.70;;;;;;4962268;28;20486;-68
2022/02/24 13:22:21;;;;;;;1.93;1.43;;;14.40;84.10;;;;;;4959817;28;20600;-68
2022/02/24 13:24:48;;;;;;;1.70;1.60;;;14.40;84.50;;;;;;4958789;28;20483;-67
2022/02/24 13:27:19;;;;;;;1.40;1.30;;;14.20;85.40;;;;;;4958806;28;20477;-68
2022/02/24 13:29:49;;;;;;;1.83;1.20;;;14.20;86.90;;;;;;4959015;28;20456;-68
2022/02/24 13:32:17;;;;;;;3.53;1.60;;;14.20;87.50;;;;;;4958908;28;20479;-68
2022/02/24 13:34:45;;;;;;;1.70;1.60;;;14.30;88.00;;;;;;4959683;28;20480;-68
2022/02/24 13:37:14;;;;;;;1.53;1.40;;;14.40;88.90;;;;;;4959546;28;20452;-68
2022/02/24 13:39:45;;;;;;;2.00;1.60;;;14.20;86.80;;;;;;4959586;28;20966;-68
2022/02/24 13:42:18;;;;;;;1.87;1.27;;;14.20;88.30;;;;;;4959323;28;20983;-68
2022/02/24 13:44:46;;;;;;;1.77;1.40;;;14.30;86.20;;;;;;4959773;28;20783;-67
2022/02/24 13:47:14;;;;;;;4.87;1.37;;;14.10;86.10;;;;;;4959881;28;20502;-68
2022/02/24 13:49:44;;;;;;;2.33;1.80;;;14.10;86.60;;;;;;4959580;28;20455;-68
2022/02/24 13:52:25;;;;;;;2.20;1.73;;;14.00;87.40;;;;;;4959928;28;20480;-68
2022/02/24 13:54:57;;;;;;;3.63;1.67;;;13.80;87.70;;;;;;4959818;28;20443;-68
2022/02/24 13:57:24;;;;;;;2.27;1.40;;;13.80;88.90;;;;;;4960516;28;20456;-68
2022/02/24 14:00:07;;;;;;;2.33;1.50;;;13.80;89.70;;;;;;4959946;28;20455;-67
2022/02/24 14:02:34;;;;;;;4.13;2.17;;;13.70;89.50;;;;;;4957361;28;21003;-66
2022/02/24 14:05:07;;;;;;;5.97;2.80;;;13.60;90.40;;;;;;4958767;28;20459;-67
2022/02/24 14:07:35;;;;;;;3.77;1.60;;;13.60;90.70;;;;;;4958138;28;20460;-68
2022/02/24 14:10:04;;;;;;;4.90;2.07;;;13.50;90.50;;;;;;4957111;28;20459;-67
2022/02/24 14:12:31;;;;;;;2.07;1.47;;;13.60;91.00;;;;;;4957862;28;20566;-67
2022/02/24 14:14:58;;;;;;;2.90;1.43;;;13.60;91.10;;;;;;4958172;28;20467;-68
2022/02/24 14:17:25;;;;;;;5.10;1.90;;;13.60;91.50;;;;;;4958225;28;20456;-69
2022/02/24 14:19:51;;;;;;;2.40;2.13;;;13.60;91.10;;;;;;4958245;28;20467;-68
2022/02/24 14:22:18;;;;;;;2.87;1.57;;;13.50;91.20;;;;;;4958059;28;20558;-68
2022/02/24 14:24:46;;;;;;;3.57;2.17;;;13.40;91.80;;;;;;4957764;28;20465;-68
2022/02/24 14:27:13;;;;;;;3.90;1.80;;;13.40;92.40;;;;;;4958122;28;20475;-68
2022/02/24 14:29:40;;;;;;;3.13;1.97;;;13.40;91.80;;;;;;4957858;28;20459;-67
2022/02/24 14:32:08;;;;;;;2.60;1.73;;;13.40;91.20;;;;;;4957842;28;20530;-68
2022/02/24 14:34:35;;;;;;;1.87;1.60;;;13.40;91.30;;;;;;4958035;28;20939;-68
2022/02/24 14:37:01;;;;;;;4.63;1.80;;;13.40;91.60;;;;;;4957532;28;20550;-68
2022/02/24 14:39:29;;;;;;;1.67;1.57;;;13.40;91.50;;;;;;4957690;28;20471;-67
2022/02/24 14:41:58;;;;;;;5.60;1.90;;;13.40;91.60;;;;;;4957145;28;20983;-69
2022/02/24 14:44:25;;;;;;;2.10;1.50;;;13.40;92.30;;;;;;4957017;28;20855;-68
2022/02/24 14:46:52;;;;;;;2.03;1.37;;;13.40;92.00;;;;;;4957424;28;20476;-68
2022/02/24 14:49:19;;;;;;;3.67;1.50;;;13.20;92.20;;;;;;4957426;28;20490;-67
2022/02/24 14:51:46;;;;;;;3.20;1.80;;;13.10;92.30;;;;;;4957362;28;20479;-67
2022/02/24 14:54:13;;;;;;;1.73;1.63;;;13.10;92.70;;;;;;4957433;28;20460;-67
2022/02/24 14:56:40;;;;;;;2.77;1.40;;;13.00;92.00;;;;;;4956993;28;20463;-66
2022/02/24 14:59:08;;;;;;;2.10;1.90;;;13.00;92.80;;;;;;4957194;28;20460;-68
2022/02/24 15:01:35;;;;;;;7.03;1.87;;;13.10;93.40;;;;;;4956941;28;20487;-68
2022/02/24 15:04:01;;;;;;;9.60;2.07;;;13.10;93.20;;;;;;4957524;28;20463;-68
2022/02/24 15:06:28;;;;;;;1.93;1.77;;;13.10;93.20;;;;;;4957792;28;20464;-67
2022/02/24 15:08:56;;;;;;;3.03;1.90;;;13.10;93.30;;;;;;4957576;28;20488;-67
2022/02/24 15:11:23;;;;;;;2.53;1.60;;;13.00;93.50;;;;;;4957929;28;20530;-67
2022/02/24 15:13:50;;;;;;;3.23;1.73;;;13.00;93.10;;;;;;4957266;28;20951;-67
2022/02/24 15:16:20;;;;;;;1.40;1.30;;;13.10;92.80;;;;;;4957482;28;20460;-67
2022/02/24 15:18:47;;;;;;;2.30;1.40;;;13.10;92.50;;;;;;4957165;28;20865;-67
2022/02/24 15:21:13;;;;;;;2.13;1.43;;;13.10;92.00;;;;;;4957237;28;20480;-68
2022/02/24 15:23:40;;;;;;;3.30;1.83;;;13.00;92.30;;;;;;4957168;28;20970;-68
2022/02/24 15:26:08;;;;;;;2.87;2.10;;;13.00;92.70;;;;;;4957094;28;20483;-67
2022/02/24 15:28:35;;;;;;;4.00;1.87;;;13.00;92.60;;;;;;4956714;28;21065;-67
2022/02/24 15:31:02;;;;;;;3.60;1.83;;;12.90;92.50;;;;;;4956407;28;20987;-66
2022/02/24 15:33:30;;;;;;;5.73;1.50;;;12.90;92.60;;;;;;4957059;28;20460;-67
2022/02/24 15:35:56;;;;;;;3.33;1.87;;;12.80;92.10;;;;;;4963289;28;20460;-67
2022/02/24 15:38:23;;;;;;;8.83;1.73;;;12.70;91.80;;;;;;4957023;28;20458;-67
2022/02/24 15:40:50;;;;;;;4.23;1.80;;;12.70;92.20;;;;;;4956282;28;20475;-67
2022/02/24 15:43:17;;;;;;;5.97;2.30;;;12.80;92.10;;;;;;4956643;28;20464;-68
2022/02/24 15:45:44;;;;;;;3.93;2.27;;;12.80;92.10;;;;;;4956903;28;20460;-67
2022/02/24 15:48:11;;;;;;;5.07;1.37;;;12.80;92.20;;;;;;4956345;28;20486;-67
2022/02/24 15:50:39;;;;;;;3.30;1.63;;;12.80;92.10;;;;;;4956126;28;20966;-67
2022/02/24 15:53:05;;;;;;;5.00;1.90;;;12.70;92.10;;;;;;4956833;28;20467;-68
2022/02/24 15:55:32;;;;;;;3.00;1.80;;;12.70;91.90;;;;;;4956253;28;20460;-69
2022/02/24 15:57:59;;;;;;;3.20;1.73;;;12.70;91.40;;;;;;4956341;28;20495;-67
2022/02/24 16:00:26;;;;;;;1.50;1.30;;;12.70;91.60;;;;;;4955648;28;20467;-68
2022/02/24 16:02:52;;;;;;;1.93;1.30;;;12.70;91.60;;;;;;4956034;28;20910;-67
2022/02/24 16:05:20;;;;;;;1.33;1.20;;;12.70;91.90;;;;;;4955736;28;20804;-67
2022/02/24 16:07:49;;;;;;;1.77;1.50;;;12.70;92.20;;;;;;4955899;28;20480;-67
2022/02/24 16:10:16;;;;;;;2.73;1.43;;;12.70;91.90;;;;;;4955797;28;21002;-66
2022/02/24 16:12:43;;;;;;;3.40;1.70;;;12.70;91.90;;;;;;4955980;28;20483;-67
2022/02/24 16:15:10;;;;;;;2.90;1.40;;;12.70;91.70;;;;;;4956278;28;20452;-67
2022/02/24 16:17:38;;;;;;;2.63;1.87;;;12.70;91.90;;;;;;4955772;28;20951;-67
2022/02/24 16:20:06;;;;;;;3.87;1.40;;;12.70;91.80;;;;;;4956257;28;20463;-66
2022/02/24 16:22:32;;;;;;;4.63;1.30;;;12.60;91.60;;;;;;4955928;28;20483;-67
2022/02/24 16:25:01;;;;;;;2.63;2.17;;;12.50;91.50;;;;;;4955802;28;20459;-68
2022/02/24 16:27:28;;;;;;;2.73;1.23;;;12.50;91.50;;;;;;4955932;28;20479;-67
2022/02/24 16:29:55;;;;;;;1.90;1.60;;;12.50;92.20;;;;;;4956159;28;20463;-66
2022/02/24 16:32:22;;;;;;;2.47;1.60;;;12.60;92.20;;;;;;4955453;28;20483;-68
2022/02/24 16:34:49;;;;;;;2.53;1.70;;;12.60;92.60;;;;;;4956106;28;20971;-66
2022/02/24 16:37:16;;;;;;;1.90;1.60;;;12.50;92.30;;;;;;4955912;28;20460;-67
2022/02/24 16:39:44;;;;;;;2.10;1.70;;;12.50;92.70;;;;;;4955840;28;20535;-66
2022/02/24 16:42:13;;;;;;;2.67;1.53;;;12.40;92.50;;;;;;4955581;28;20539;-67
2022/02/24 16:44:42;;;;;;;1.57;1.47;;;12.40;92.80;;;;;;4955949;28;20827;-67
2022/02/24 16:47:11;;;;;;;2.00;1.50;;;12.40;92.90;;;;;;4956015;28;20455;-67
2022/02/24 16:49:38;;;;;;;2.40;1.60;;;12.30;92.60;;;;;;4955993;28;20874;-66
2022/02/24 16:52:06;;;;;;;2.03;1.53;;;12.20;92.80;;;;;;4956086;28;20483;-67
2022/02/24 16:54:33;;;;;;;3.03;1.90;;;12.20;92.90;;;;;;4956541;28;20451;-67
2022/02/24 16:57:00;;;;;;;1.90;1.53;;;12.20;93.30;;;;;;4956310;28;20498;-67
2022/02/24 16:59:29;;;;;;;2.63;1.80;;;12.20;93.40;;;;;;4955527;28;20585;-67
2022/02/24 17:01:56;;;;;;;3.23;1.93;;;12.20;93.30;;;;;;4955359;28;20491;-66
2022/02/24 17:04:22;;;;;;;2.50;1.57;;;12.20;93.40;;;;;;4956001;28;20462;-67
2022/02/24 17:06:50;;;;;;;4.37;2.47;;;12.20;93.30;;;;;;4965882;28;20463;-67
2022/02/24 17:09:17;;;;;;;3.77;1.93;;;12.20;93.10;;;;;;4958965;28;20467;-68
2022/02/24 17:11:44;;;;;;;3.93;1.67;;;12.10;93.20;;;;;;4955580;28;20476;-67
2022/02/24 17:14:12;;;;;;;3.17;1.83;;;12.00;93.40;;;;;;4955397;28;20459;-68
2022/02/24 17:16:40;;;;;;;3.60;2.07;;;11.90;93.70;;;;;;4955768;28;20464;-68
2022/02/24 17:19:07;;;;;;;6.63;2.47;;;11.90;94.00;;;;;;4955204;28;20854;-67
2022/02/24 17:21:34;;;;;;;5.40;1.60;;;11.90;94.30;;;;;;4955265;28;20472;-67
2022/02/24 17:24:05;;;;;;;2.93;2.20;;;11.90;94.60;;;;;;4955323;28;20459;-68
2022/02/24 17:26:31;;;;;;;2.47;1.50;;;11.90;94.60;;;;;;4955494;28;20440;-68
2022/02/24 17:29:00;;;;;;;3.90;1.93;;;11.90;94.80;;;;;;4955191;28;20506;-68
2022/02/24 17:31:27;;;;;;;3.00;1.60;;;11.80;95.00;;;;;;4955495;28;20983;-68
2022/02/24 17:33:55;;;;;;;4.90;2.00;;;11.80;95.20;;;;;;4955310;28;20482;-68
2022/02/24 17:36:22;;;;;;;3.10;2.00;;;11.70;95.30;;;;;;4955275;28;20459;-69
2022/02/24 17:38:49;;;;;;;3.90;2.13;;;11.80;95.60;;;;;;4955367;28;20478;-68
2022/02/24 17:41:15;;;;;;;3.13;1.70;;;11.70;95.60;;;;;;4955027;28;20538;-68
2022/02/24 17:43:42;;;;;;;2.47;1.80;;;11.70;95.70;;;;;;4955425;28;20455;-68
2022/02/24 17:46:09;;;;;;;1.60;1.50;;;11.80;95.90;;;;;;4958747;28;20484;-68
2022/02/24 17:48:36;;;;;;;2.77;2.40;;;11.80;95.60;;;;;;4958210;28;20990;-68
2022/02/24 17:51:04;;;;;;;5.33;2.10;;;11.90;95.70;;;;;;4958507;28;20483;-68
2022/02/24 17:53:31;;;;;;;2.67;1.73;;;11.80;95.30;;;;;;4958611;28;20456;-68
2022/02/24 17:55:58;;;;;;;3.50;1.63;;;11.80;95.50;;;;;;4958587;28;20460;-68
2022/02/24 17:58:27;;;;;;;1.07;1.07;;;11.80;95.60;;;;;;4958505;28;20456;-68
2022/02/24 18:00:54;;;;;;;2.67;1.60;;;11.80;95.40;;;;;;4958085;28;20484;-68